createdAt,value
2018-09-26T00:02:28.868Z,2.60
2018-09-26T00:07:32.902Z,2.87
2018-09-26T00:12:36.747Z,2.67
2018-09-26T00:17:40.530Z,3.17
2018-09-26T00:22:45.506Z,3.40
2018-09-26T00:27:49.306Z,3.17
2018-09-26T00:32:53.375Z,3.40
2018-09-26T00:37:57.407Z,3.30
2018-09-26T00:43:01.438Z,3.37
2018-09-26T00:48:05.503Z,3.30
2018-09-26T00:53:09.390Z,3.27
2018-09-26T00:58:13.419Z,3.40
2018-09-26T01:03:18.522Z,2.80
2018-09-26T01:08:22.626Z,2.90
2018-09-26T01:13:26.659Z,2.60
2018-09-26T01:18:30.484Z,2.70
2018-09-26T01:23:34.543Z,2.37
2018-09-26T01:28:38.394Z,2.60
2018-09-26T01:33:42.434Z,2.53
2018-09-26T01:38:46.467Z,2.63
2018-09-26T01:43:50.494Z,2.40
2018-09-26T01:48:54.572Z,2.53
2018-09-26T01:53:58.610Z,2.70
2018-09-26T01:59:02.643Z,2.90
2018-09-26T02:04:06.752Z,2.53
2018-09-26T02:09:12.022Z,2.87
2018-09-26T02:14:16.071Z,2.70
2018-09-26T02:19:20.126Z,3.10
2018-09-26T02:24:24.238Z,3.20
2018-09-26T02:29:28.304Z,3.37
2018-09-26T02:34:32.379Z,3.37
2018-09-26T02:39:37.057Z,3.60
2018-09-26T02:44:41.123Z,3.20
2018-09-26T02:49:45.207Z,3.40
2018-09-26T02:54:49.265Z,3.67
2018-09-26T02:59:53.361Z,3.27
2018-09-26T03:04:57.440Z,3.50
2018-09-26T03:10:01.484Z,3.30
2018-09-26T03:15:05.284Z,3.13
2018-09-26T03:20:09.413Z,3.30
2018-09-26T03:25:13.219Z,3.00
2018-09-26T03:30:17.312Z,3.70
2018-09-26T03:35:21.108Z,3.50
2018-09-26T03:40:25.213Z,2.90
2018-09-26T03:45:29.249Z,3.37
2018-09-26T03:50:33.332Z,3.00
2018-09-26T03:55:37.410Z,3.30
2018-09-26T04:00:41.465Z,3.10
2018-09-26T04:05:45.518Z,3.13
2018-09-26T04:10:49.665Z,3.13
2018-09-26T04:15:55.300Z,3.23
2018-09-26T04:20:59.101Z,3.13
2018-09-26T04:26:02.904Z,3.30
2018-09-26T04:31:06.969Z,3.02
2018-09-26T04:36:10.772Z,4.10
2018-09-26T04:41:14.647Z,3.20
2018-09-26T04:46:18.436Z,3.40
2018-09-26T04:51:22.578Z,3.23
2018-09-26T04:56:26.629Z,2.90
2018-09-26T05:01:31.080Z,2.80
2018-09-26T05:06:35.098Z,3.20
2018-09-26T05:11:39.239Z,3.13
2018-09-26T05:16:43.009Z,3.70
2018-09-26T05:21:47.009Z,3.20
2018-09-26T05:26:50.784Z,3.00
2018-09-26T05:31:54.852Z,2.80
2018-09-26T05:36:58.862Z,2.93
2018-09-26T05:42:03.188Z,2.90
2018-09-26T05:47:07.522Z,2.87
2018-09-26T05:52:11.329Z,2.93
2018-09-26T05:57:15.133Z,2.70
2018-09-26T06:02:18.937Z,2.70
2018-09-26T06:07:22.733Z,2.90
2018-09-26T06:12:26.533Z,2.73
2018-09-26T06:17:30.317Z,2.60
2018-09-26T06:22:34.338Z,2.80
2018-09-26T06:27:38.570Z,2.50
2018-09-26T06:32:42.878Z,2.70
2018-09-26T06:37:46.657Z,2.83
2018-09-26T06:42:50.677Z,3.20
2018-09-26T06:47:54.736Z,3.10
2018-09-26T06:52:58.533Z,3.10
2018-09-26T06:58:02.561Z,2.83
2018-09-26T07:03:06.879Z,2.70
2018-09-26T07:08:10.910Z,2.40
2018-09-26T07:13:14.783Z,2.73
2018-09-26T07:18:18.790Z,2.37
2018-09-26T07:23:22.841Z,2.50
2018-09-26T07:28:28.587Z,2.20
2018-09-26T07:33:32.642Z,2.50
2018-09-26T07:38:36.762Z,2.60
2018-09-26T07:43:40.473Z,2.13
2018-09-26T07:48:44.478Z,2.10
2018-09-26T07:53:48.289Z,2.25
2018-09-26T07:58:52.139Z,2.00
2018-09-26T08:03:56.316Z,2.20
2018-09-26T08:09:00.332Z,2.37
2018-09-26T08:14:04.578Z,2.17
2018-09-26T08:19:08.806Z,2.20
2018-09-26T08:24:13.000Z,1.87
2018-09-26T08:29:16.994Z,2.40
2018-09-26T08:34:21.580Z,2.20
2018-09-26T08:39:25.670Z,2.27
2018-09-26T08:44:29.478Z,2.17
2018-09-26T08:49:33.595Z,1.90
2018-09-26T08:54:37.653Z,2.00
2018-09-26T08:59:41.492Z,2.05
2018-09-26T09:04:45.509Z,2.13
2018-09-26T09:09:49.550Z,2.40
2018-09-26T09:14:53.899Z,2.20
2018-09-26T09:19:57.709Z,2.20
2018-09-26T09:25:01.514Z,1.90
2018-09-26T09:30:05.347Z,2.00
2018-09-26T09:35:09.647Z,1.90
2018-09-26T09:40:13.682Z,2.20
2018-09-26T09:45:17.541Z,2.30
2018-09-26T09:50:21.608Z,1.80
2018-09-26T09:55:25.577Z,2.17
2018-09-26T10:00:35.009Z,1.90
2018-09-26T10:05:39.114Z,1.50
2018-09-26T10:10:43.132Z,1.77
2018-09-26T10:15:47.166Z,1.73
2018-09-26T10:20:51.209Z,3.90
2018-09-26T10:25:55.007Z,1.60
2018-09-26T10:30:58.786Z,1.83
2018-09-26T10:36:02.872Z,1.80
2018-09-26T10:41:06.732Z,1.60
2018-09-26T10:46:10.805Z,1.60
2018-09-26T10:51:14.983Z,1.80
2018-09-26T10:56:19.084Z,1.70
2018-09-26T11:01:23.177Z,2.10
2018-09-26T11:06:26.988Z,1.93
2018-09-26T11:11:30.806Z,2.10
2018-09-26T11:16:34.881Z,1.77
2018-09-26T11:21:38.694Z,1.83
2018-09-26T11:26:42.556Z,1.60
2018-09-26T11:31:46.489Z,1.80
2018-09-26T11:36:50.285Z,1.47
2018-09-26T11:41:54.435Z,1.90
2018-09-26T11:46:58.470Z,1.57
2018-09-26T11:52:02.509Z,2.00
2018-09-26T11:57:06.472Z,1.60
2018-09-26T12:02:10.768Z,2.23
2018-09-26T12:07:14.820Z,1.37
2018-09-26T12:12:18.552Z,1.30
2018-09-26T12:17:22.638Z,1.80
2018-09-26T12:22:26.709Z,1.90
2018-09-26T12:27:30.702Z,1.30
2018-09-26T12:32:34.759Z,1.70
2018-09-26T12:37:38.878Z,1.40
2018-09-26T12:42:43.034Z,1.37
2018-09-26T12:47:47.037Z,1.50
2018-09-26T12:52:50.879Z,1.60
2018-09-26T12:57:55.153Z,1.40
2018-09-26T13:02:59.182Z,1.30
2018-09-26T13:08:02.993Z,1.30
2018-09-26T13:13:07.061Z,1.33
2018-09-26T13:18:11.162Z,1.30
2018-09-26T13:23:15.378Z,1.47
2018-09-26T13:28:19.503Z,1.30
2018-09-26T13:33:23.276Z,1.23
2018-09-26T13:38:27.076Z,1.13
2018-09-26T13:43:30.864Z,1.30
2018-09-26T13:48:34.921Z,1.20
2018-09-26T13:53:38.757Z,1.40
2018-09-26T13:58:42.822Z,1.37
2018-09-26T14:03:46.882Z,1.40
2018-09-26T14:08:50.684Z,1.35
2018-09-26T14:13:54.788Z,1.30
2018-09-26T14:18:58.856Z,1.53
2018-09-26T14:24:03.013Z,1.10
2018-09-26T14:29:06.928Z,1.40
2018-09-26T14:34:11.078Z,1.33
2018-09-26T14:39:15.281Z,1.20
2018-09-26T14:44:19.194Z,1.70
2018-09-26T14:49:23.401Z,1.10
2018-09-26T14:54:34.287Z,1.50
2018-09-26T14:59:38.205Z,1.40
2018-09-26T15:04:42.142Z,1.80
2018-09-26T15:09:46.702Z,1.60
2018-09-26T15:14:50.609Z,1.27
2018-09-26T15:19:54.520Z,1.40
2018-09-26T15:24:58.432Z,1.30
2018-09-26T15:30:02.350Z,1.30
2018-09-26T15:35:06.370Z,1.40
2018-09-26T15:40:10.330Z,1.40
2018-09-26T15:45:14.192Z,2.07
2018-09-26T15:50:18.106Z,1.50
2018-09-26T15:55:22.115Z,1.67
2018-09-26T16:00:25.994Z,1.53
2018-09-26T16:05:29.746Z,1.40
2018-09-26T16:10:33.772Z,2.10
2018-09-26T16:15:37.612Z,1.50
2018-09-26T16:20:41.629Z,1.43
2018-09-26T16:25:45.435Z,1.93
2018-09-26T16:30:49.190Z,1.60
2018-09-26T16:35:53.053Z,1.80
2018-09-26T16:40:57.066Z,1.63
2018-09-26T16:46:01.330Z,1.50
2018-09-26T16:51:05.104Z,1.53
2018-09-26T16:56:09.792Z,1.30
2018-09-26T17:01:13.738Z,1.53
2018-09-26T17:06:17.826Z,1.83
2018-09-26T17:11:21.829Z,1.97
2018-09-26T17:16:25.736Z,1.93
2018-09-26T17:21:29.643Z,2.13
2018-09-26T17:26:33.446Z,2.40
2018-09-26T17:31:37.269Z,1.90
2018-09-26T17:36:41.080Z,2.10
2018-09-26T17:41:45.187Z,2.30
2018-09-26T17:46:49.211Z,2.03
2018-09-26T17:51:53.306Z,2.00
2018-09-26T17:56:57.348Z,2.60
2018-09-26T18:02:01.388Z,2.23
2018-09-26T18:07:05.397Z,2.03
2018-09-26T18:12:09.445Z,1.97
2018-09-26T18:17:13.529Z,2.03
2018-09-26T18:22:17.486Z,2.40
2018-09-26T18:27:21.589Z,2.30
2018-09-26T18:32:25.603Z,2.40
2018-09-26T18:37:29.408Z,2.40
2018-09-26T18:42:33.458Z,2.63
2018-09-26T18:47:37.621Z,2.27
2018-09-26T18:52:41.664Z,2.37
2018-09-26T18:57:45.693Z,2.10
2018-09-26T19:02:49.524Z,2.13
2018-09-26T19:07:53.915Z,2.00
2018-09-26T19:12:57.967Z,2.35
2018-09-26T19:18:01.754Z,2.20
2018-09-26T19:23:05.681Z,2.50
2018-09-26T19:28:09.839Z,2.53
2018-09-26T19:33:13.670Z,2.33
2018-09-26T19:38:17.652Z,2.87
2018-09-26T19:43:21.697Z,2.63
2018-09-26T19:48:25.744Z,3.07
2018-09-26T19:53:29.787Z,2.87
2018-09-26T19:58:33.997Z,2.97
2018-09-26T20:03:38.081Z,3.03
2018-09-26T20:08:41.893Z,3.17
2018-09-26T20:13:45.913Z,3.40
2018-09-26T20:18:49.941Z,3.30
2018-09-26T20:23:54.044Z,3.40
2018-09-26T20:28:58.337Z,2.77
2018-09-26T20:34:02.080Z,3.30
2018-09-26T20:39:09.156Z,3.23
2018-09-26T20:44:13.185Z,3.40
2018-09-26T20:49:17.222Z,3.50
2018-09-26T20:54:21.317Z,3.40
2018-09-26T20:59:25.088Z,3.90
2018-09-26T21:04:29.113Z,3.27
2018-09-26T21:09:33.125Z,3.50
2018-09-26T21:14:37.172Z,3.90
2018-09-26T21:19:41.206Z,4.40
2018-09-26T21:24:45.029Z,4.10
2018-09-26T21:29:49.097Z,3.63
2018-09-26T21:34:52.965Z,3.90
2018-09-26T21:39:56.788Z,3.60
2018-09-26T21:45:00.834Z,4.87
2018-09-26T21:50:04.912Z,3.50
2018-09-26T21:55:09.561Z,3.37
2018-09-26T22:00:13.369Z,3.87
2018-09-26T22:05:18.057Z,3.95
2018-09-26T22:10:22.121Z,3.60
2018-09-26T22:15:26.158Z,3.67
2018-09-26T22:20:30.205Z,3.50
2018-09-26T22:26:05.695Z,3.60
2018-09-26T22:31:09.517Z,3.80
2018-09-26T22:36:13.586Z,4.03
2018-09-26T22:41:17.633Z,3.70
2018-09-26T22:46:21.672Z,4.00
2018-09-26T22:51:25.734Z,3.80
2018-09-26T22:56:29.539Z,3.80
2018-09-26T23:01:33.594Z,4.20
2018-09-26T23:06:37.936Z,3.53
2018-09-26T23:11:41.832Z,3.57
2018-09-26T23:16:45.977Z,3.90
2018-09-26T23:21:50.149Z,3.80
2018-09-26T23:26:54.244Z,3.93
2018-09-26T23:31:58.278Z,3.80
2018-09-26T23:37:02.344Z,3.55
2018-09-26T23:53:04.824Z,3.50
2018-09-26T23:58:08.632Z,3.40
